Time;durP1;ratioP1;P1;durP2;ratioP2;P2;SDS_P1;SDS_P2;PMS_P1;PMS_P2;Temp;Humidity;BMP_temperature;BMP_pressure;BME280_temperature;BME280_humidity;BME280_pressure;Samples;Min_cycle;Max_cycle;Signal;HPM_P1;HPM_P2
2023/03/25 00:01:12;;;;;;;1.73;0.77;;;;;;;;;;6065886;23;20027;-78
2023/03/25 00:03:51;;;;;;;1.40;0.40;;;;;;;;;;6067521;23;20026;-78
2023/03/25 00:06:19;;;;;;;3.67;0.40;;;;;;;;;;6065815;23;20023;-77
2023/03/25 00:08:46;;;;;;;1.83;0.50;;;;;;;;;;6069604;23;20030;-79
2023/03/25 00:11:13;;;;;;;1.00;0.30;;;;;;;;;;6068624;23;20030;-78
2023/03/25 00:13:40;;;;;;;0.50;0.30;;;;;;;;;;6069528;23;20070;-78
2023/03/25 00:16:08;;;;;;;0.75;0.43;;;;;;;;;;6069473;23;20331;-78
2023/03/25 00:18:36;;;;;;;2.65;0.40;;;;;;;;;;6068572;23;20172;-78
2023/03/25 00:21:06;;;;;;;1.00;0.45;;;;;;;;;;6066623;23;20720;-81
2023/03/25 00:23:33;;;;;;;1.48;0.50;;;;;;;;;;6067637;23;20709;-79
2023/03/25 00:25:59;;;;;;;0.90;0.52;;;;;;;;;;6067991;23;20418;-78
2023/03/25 00:28:29;;;;;;;1.13;0.50;;;;;;;;;;6067605;23;20067;-78
2023/03/25 00:31:01;;;;;;;0.45;0.20;;;;;;;;;;6066892;23;20034;-78
2023/03/25 00:33:28;;;;;;;0.50;0.30;;;;;;;;;;6067216;23;20018;-78
2023/03/25 00:35:58;;;;;;;0.45;0.25;;;;;;;;;;6067032;23;20041;-79
2023/03/25 00:38:32;;;;;;;0.43;0.20;;;;;;;;;;6067152;23;20343;-78
2023/03/25 00:41:16;;;;;;;1.58;0.55;;;;;;;;;;6066238;23;20628;-78
2023/03/25 00:43:44;;;;;;;1.63;0.40;;;;;;;;;;6040433;23;20542;-78
2023/03/25 00:46:11;;;;;;;1.75;0.50;;;;;;;;;;6066053;23;20027;-77
2023/03/25 00:48:38;;;;;;;0.32;0.22;;;;;;;;;;6067484;23;20027;-77
2023/03/25 00:51:08;;;;;;;0.75;0.20;;;;;;;;;;6068352;23;20031;-78
2023/03/25 00:53:36;;;;;;;1.75;0.35;;;;;;;;;;6068600;23;20023;-78
2023/03/25 00:56:03;;;;;;;1.70;0.40;;;;;;;;;;6069182;23;20056;-77
2023/03/25 00:58:31;;;;;;;3.80;0.50;;;;;;;;;;6068249;23;20050;-78
2023/03/25 01:00:58;;;;;;;0.30;0.20;;;;;;;;;;6067440;23;20029;-77
2023/03/25 01:03:25;;;;;;;0.85;0.30;;;;;;;;;;6068024;23;20027;-77
2023/03/25 01:05:54;;;;;;;1.55;0.60;;;;;;;;;;6067566;23;20034;-76
2023/03/25 01:08:28;;;;;;;1.92;0.77;;;;;;;;;;6067447;23;20018;-77
2023/03/25 01:10:55;;;;;;;1.83;0.40;;;;;;;;;;6067581;23;20109;-77
2023/03/25 01:13:22;;;;;;;2.63;0.70;;;;;;;;;;6068054;23;20074;-78
2023/03/25 01:15:49;;;;;;;1.48;0.55;;;;;;;;;;6066982;23;20018;-78
2023/03/25 01:18:16;;;;;;;1.27;0.43;;;;;;;;;;6067534;23;20030;-78
2023/03/25 01:20:43;;;;;;;2.70;0.90;;;;;;;;;;6066910;23;20027;-77
2023/03/25 01:23:10;;;;;;;1.48;0.45;;;;;;;;;;6042728;23;20343;-77
2023/03/25 01:25:36;;;;;;;3.90;1.25;;;;;;;;;;6065938;23;20030;-76
2023/03/25 01:28:04;;;;;;;3.08;0.85;;;;;;;;;;6066908;23;20029;-77
2023/03/25 01:30:30;;;;;;;2.85;0.43;;;;;;;;;;6065934;23;20023;-77
2023/03/25 01:32:57;;;;;;;1.70;0.50;;;;;;;;;;6066133;23;20023;-77
2023/03/25 01:35:24;;;;;;;1.58;0.60;;;;;;;;;;6042682;23;20583;-76
2023/03/25 01:37:53;;;;;;;1.98;0.50;;;;;;;;;;6042316;23;20022;-77
2023/03/25 01:40:22;;;;;;;3.58;0.80;;;;;;;;;;6041946;23;20057;-77
2023/03/25 01:42:49;;;;;;;1.27;0.40;;;;;;;;;;6065412;23;20102;-76
2023/03/25 01:45:28;;;;;;;1.67;0.80;;;;;;;;;;6065807;23;20082;-77
2023/03/25 01:48:05;;;;;;;1.52;0.60;;;;;;;;;;6067274;23;20030;-77
2023/03/25 01:50:33;;;;;;;3.65;0.65;;;;;;;;;;6065763;23;20361;-78
2023/03/25 01:53:01;;;;;;;2.17;0.95;;;;;;;;;;6066925;23;20770;-78
2023/03/25 01:55:28;;;;;;;3.17;0.80;;;;;;;;;;6067315;23;20462;-78
2023/03/25 01:57:55;;;;;;;2.13;0.75;;;;;;;;;;6066926;23;20351;-77
2023/03/25 02:00:22;;;;;;;7.00;1.48;;;;;;;;;;6066392;23;20035;-77
2023/03/25 02:02:49;;;;;;;3.90;0.60;;;;;;;;;;6066951;23;20025;-77
2023/03/25 02:05:16;;;;;;;3.15;0.95;;;;;;;;;;6066934;23;20026;-78
2023/03/25 02:07:45;;;;;;;2.20;0.60;;;;;;;;;;6091134;23;20050;-77
2023/03/25 02:10:12;;;;;;;1.95;0.50;;;;;;;;;;6067128;23;20694;-78
2023/03/25 02:12:40;;;;;;;1.50;0.60;;;;;;;;;;6066699;23;20023;-78
2023/03/25 02:15:07;;;;;;;2.30;0.50;;;;;;;;;;6067205;23;20027;-77
2023/03/25 02:17:41;;;;;;;3.47;0.50;;;;;;;;;;6065348;23;20035;-76
2023/03/25 02:20:17;;;;;;;3.33;0.77;;;;;;;;;;6066430;23;20030;-77
2023/03/25 02:22:46;;;;;;;2.63;0.70;;;;;;;;;;6089441;23;20474;-77
2023/03/25 02:25:35;;;;;;;2.33;0.60;;;;;;;;;;6089456;23;20034;-77
2023/03/25 02:28:02;;;;;;;2.47;0.80;;;;;;;;;;6089041;23;20015;-77
2023/03/25 02:30:45;;;;;;;1.98;0.50;;;;;;;;;;6065308;23;20025;-77
2023/03/25 02:33:33;;;;;;;3.35;0.80;;;;;;;;;;6063630;23;20029;-77
2023/03/25 02:36:37;;;;;;;3.75;1.30;;;;;;;;;;6089666;23;20030;-76
2023/03/25 02:39:29;;;;;;;2.05;0.60;;;;;;;;;;6089408;23;20444;-76
2023/03/25 02:42:03;;;;;;;1.98;0.60;;;;;;;;;;6089279;23;20019;-77
2023/03/25 02:44:51;;;;;;;2.80;0.60;;;;;;;;;;6064441;23;20110;-77
2023/03/25 02:47:19;;;;;;;1.88;0.70;;;;;;;;;;6087407;23;20027;-78
2023/03/25 02:50:16;;;;;;;2.50;0.77;;;;;;;;;;6066430;23;20034;-76
2023/03/25 02:52:48;;;;;;;0.85;0.30;;;;;;;;;;6022693;23;20046;-78
2023/03/25 02:55:16;;;;;;;1.77;0.55;;;;;;;;;;6067795;23;20062;-78
2023/03/25 02:57:45;;;;;;;2.03;0.28;;;;;;;;;;6070254;23;20030;-78
2023/03/25 03:00:14;;;;;;;1.00;0.30;;;;;;;;;;6067826;23;20030;-78
2023/03/25 03:02:58;;;;;;;0.57;0.30;;;;;;;;;;6068126;23;20030;-78
2023/03/25 03:05:34;;;;;;;2.67;0.85;;;;;;;;;;6067802;23;20030;-78
2023/03/25 03:08:23;;;;;;;2.38;0.40;;;;;;;;;;6068358;23;20046;-78
2023/03/25 03:10:58;;;;;;;0.40;0.30;;;;;;;;;;6067358;23;20042;-78
2023/03/25 03:13:59;;;;;;;0.70;0.30;;;;;;;;;;6092364;23;20082;-78
2023/03/25 03:16:49;;;;;;;3.17;0.73;;;;;;;;;;6026191;23;20083;-79
2023/03/25 03:19:36;;;;;;;0.50;0.30;;;;;;;;;;6092312;23;20042;-79
2023/03/25 03:22:28;;;;;;;0.47;0.20;;;;;;;;;;6068983;23;20078;-79
2023/03/25 03:25:18;;;;;;;1.52;0.30;;;;;;;;;;6093278;23;20078;-79
2023/03/25 03:27:53;;;;;;;1.55;0.30;;;;;;;;;;6065093;23;20034;-79
2023/03/25 03:30:26;;;;;;;1.92;0.38;;;;;;;;;;6068556;23;20023;-78
2023/03/25 03:32:59;;;;;;;2.42;0.30;;;;;;;;;;6075254;23;20029;-79
2023/03/25 03:35:33;;;;;;;0.98;0.20;;;;;;;;;;6078260;23;20054;-79
2023/03/25 03:38:02;;;;;;;0.60;0.28;;;;;;;;;;6085860;23;20022;-79
2023/03/25 03:40:30;;;;;;;2.65;0.52;;;;;;;;;;6090285;23;20018;-79
2023/03/25 03:43:02;;;;;;;2.53;0.47;;;;;;;;;;6091251;23;20066;-79
2023/03/25 03:45:33;;;;;;;2.47;0.70;;;;;;;;;;6092376;23;20007;-78
2023/03/25 03:48:02;;;;;;;6.55;1.08;;;;;;;;;;6092503;23;20049;-77
2023/03/25 03:50:32;;;;;;;2.05;0.45;;;;;;;;;;6092178;23;20007;-78
2023/03/25 03:53:10;;;;;;;4.57;1.00;;;;;;;;;;6092395;23;20027;-78
2023/03/25 03:55:42;;;;;;;4.68;2.13;;;;;;;;;;6092391;23;20017;-78
2023/03/25 03:58:15;;;;;;;2.67;1.13;;;;;;;;;;6090998;23;20006;-78
2023/03/25 04:01:29;;;;;;;3.40;0.80;;;;;;;;;;6090486;23;20027;-78
2023/03/25 04:03:59;;;;;;;2.45;0.65;;;;;;;;;;6114886;23;20015;-77
2023/03/25 04:06:34;;;;;;;2.13;0.50;;;;;;;;;;6089587;23;20082;-78
2023/03/25 04:09:07;;;;;;;2.00;0.60;;;;;;;;;;6082668;23;20002;-78
2023/03/25 04:11:40;;;;;;;1.38;0.50;;;;;;;;;;6078028;23;20452;-78
2023/03/25 04:14:06;;;;;;;1.30;0.60;;;;;;;;;;6082118;23;20019;-78
2023/03/25 04:16:36;;;;;;;0.73;0.40;;;;;;;;;;6078061;23;20074;-79
2023/03/25 04:19:04;;;;;;;1.63;0.40;;;;;;;;;;6070986;23;20026;-77
2023/03/25 04:21:31;;;;;;;2.65;0.38;;;;;;;;;;6064696;23;20034;-77
2023/03/25 04:24:00;;;;;;;0.60;0.28;;;;;;;;;;6065066;23;20019;-78
2023/03/25 04:26:32;;;;;;;0.60;0.40;;;;;;;;;;6065377;23;20026;-79
2023/03/25 04:29:00;;;;;;;0.50;0.40;;;;;;;;;;6066031;23;20030;-78
2023/03/25 04:31:31;;;;;;;0.50;0.30;;;;;;;;;;6068758;23;20046;-78
2023/03/25 04:33:59;;;;;;;0.93;0.35;;;;;;;;;;6067168;23;20029;-77
2023/03/25 04:36:32;;;;;;;1.05;0.75;;;;;;;;;;6065360;23;20026;-77
2023/03/25 04:39:00;;;;;;;0.82;0.22;;;;;;;;;;6064719;23;20042;-78
2023/03/25 04:41:27;;;;;;;1.75;0.20;;;;;;;;;;6040510;23;20034;-79
2023/03/25 04:43:54;;;;;;;0.60;0.40;;;;;;;;;;6065036;23;20027;-77
2023/03/25 04:46:21;;;;;;;2.85;0.32;;;;;;;;;;6064257;23;20030;-77
2023/03/25 04:48:48;;;;;;;0.93;0.30;;;;;;;;;;6064496;23;20023;-77
2023/03/25 04:51:15;;;;;;;1.65;0.32;;;;;;;;;;6063744;23;20493;-77
2023/03/25 04:53:42;;;;;;;0.75;0.32;;;;;;;;;;6064686;23;20404;-78
2023/03/25 04:56:14;;;;;;;0.85;0.25;;;;;;;;;;6065377;23;20074;-79
2023/03/25 04:58:43;;;;;;;1.77;0.40;;;;;;;;;;6088754;23;20029;-79
2023/03/25 05:01:36;;;;;;;1.92;0.40;;;;;;;;;;6065642;23;20027;-78
2023/03/25 05:04:04;;;;;;;2.75;0.50;;;;;;;;;;6061546;23;20019;-79
2023/03/25 05:06:37;;;;;;;3.42;0.52;;;;;;;;;;6065805;23;20461;-80
2023/03/25 05:09:06;;;;;;;1.85;0.60;;;;;;;;;;6065566;23;20030;-80
2023/03/25 05:11:35;;;;;;;0.68;0.60;;;;;;;;;;6064384;23;20470;-80
2023/03/25 05:14:02;;;;;;;1.73;0.50;;;;;;;;;;6065739;23;20026;-79
2023/03/25 05:16:29;;;;;;;0.43;0.40;;;;;;;;;;6089415;23;20357;-80
2023/03/25 05:18:56;;;;;;;2.97;0.40;;;;;;;;;;6065717;23;20458;-78
2023/03/25 05:21:23;;;;;;;2.28;0.43;;;;;;;;;;6064818;23;20046;-81
2023/03/25 05:23:51;;;;;;;0.93;0.38;;;;;;;;;;6041344;23;20022;-79
2023/03/25 05:26:19;;;;;;;3.53;0.50;;;;;;;;;;6065363;23;20026;-79
2023/03/25 05:28:50;;;;;;;3.78;1.05;;;;;;;;;;6064923;23;20026;-80
2023/03/25 05:31:19;;;;;;;2.25;0.60;;;;;;;;;;6066323;23;20086;-79
2023/03/25 05:33:46;;;;;;;2.05;0.65;;;;;;;;;;6067792;23;20070;-79
2023/03/25 05:36:13;;;;;;;1.38;1.00;;;;;;;;;;6067572;23;20048;-79
2023/03/25 05:38:43;;;;;;;2.53;0.77;;;;;;;;;;6067051;23;20023;-79
2023/03/25 05:41:15;;;;;;;2.55;0.95;;;;;;;;;;6067112;23;20106;-78
2023/03/25 05:43:46;;;;;;;2.60;0.80;;;;;;;;;;6068509;23;20027;-78
2023/03/25 05:46:14;;;;;;;2.50;0.75;;;;;;;;;;6070302;23;20082;-79
2023/03/25 05:48:41;;;;;;;5.45;0.90;;;;;;;;;;6066127;23;20030;-79
2023/03/25 05:51:14;;;;;;;2.60;1.23;;;;;;;;;;6066902;23;20093;-79
2023/03/25 05:53:42;;;;;;;2.30;0.70;;;;;;;;;;6066781;23;20019;-78
2023/03/25 05:56:10;;;;;;;2.90;1.42;;;;;;;;;;6067378;23;20285;-78
2023/03/25 05:58:38;;;;;;;2.45;0.80;;;;;;;;;;6068196;23;20036;-78
2023/03/25 06:01:05;;;;;;;2.28;0.57;;;;;;;;;;6067509;23;20041;-79
2023/03/25 06:03:37;;;;;;;3.00;0.73;;;;;;;;;;6044497;23;20025;-79
2023/03/25 06:06:04;;;;;;;6.60;0.77;;;;;;;;;;6067553;23;20039;-79
2023/03/25 06:08:34;;;;;;;2.72;0.68;;;;;;;;;;6066984;23;20018;-77
2023/03/25 06:11:01;;;;;;;1.85;0.90;;;;;;;;;;6066620;23;20023;-78
2023/03/25 06:13:27;;;;;;;3.03;0.73;;;;;;;;;;6067207;23;20119;-77
2023/03/25 06:15:56;;;;;;;4.30;1.02;;;;;;;;;;6066929;23;20026;-78
2023/03/25 06:18:25;;;;;;;3.15;1.10;;;;;;;;;;6043315;23;20513;-78
2023/03/25 06:20:56;;;;;;;4.68;1.52;;;;;;;;;;6066859;23;20023;-78
2023/03/25 06:23:25;;;;;;;1.48;0.73;;;;;;;;;;6067264;23;20056;-78
2023/03/25 06:25:52;;;;;;;5.22;0.82;;;;;;;;;;6067578;23;20098;-78
2023/03/25 06:28:19;;;;;;;2.83;1.10;;;;;;;;;;6067395;23;20030;-78
2023/03/25 06:30:46;;;;;;;1.55;0.60;;;;;;;;;;6067156;23;20477;-78
2023/03/25 06:33:14;;;;;;;2.15;0.90;;;;;;;;;;6066384;23;20470;-79
2023/03/25 06:36:01;;;;;;;2.90;0.70;;;;;;;;;;6067140;23;20406;-80
2023/03/25 06:38:28;;;;;;;2.38;0.80;;;;;;;;;;6067918;23;20023;-81
2023/03/25 06:40:55;;;;;;;2.70;0.60;;;;;;;;;;6067160;23;20079;-79
2023/03/25 06:43:22;;;;;;;2.55;0.75;;;;;;;;;;6065423;23;20042;-80
2023/03/25 06:45:50;;;;;;;10.57;0.80;;;;;;;;;;6067752;23;20027;-80
2023/03/25 06:48:17;;;;;;;2.70;0.65;;;;;;;;;;6063665;23;20078;-77
2023/03/25 06:50:45;;;;;;;2.92;1.00;;;;;;;;;;6088468;23;20033;-77
2023/03/25 06:53:12;;;;;;;3.75;1.15;;;;;;;;;;6064727;23;20465;-76
2023/03/25 06:55:40;;;;;;;1.90;0.70;;;;;;;;;;6068943;23;20047;-81
2023/03/25 06:58:06;;;;;;;2.13;1.00;;;;;;;;;;6082150;23;20074;-82
2023/03/25 07:00:33;;;;;;;4.18;0.90;;;;;;;;;;6069715;23;20040;-87
2023/03/25 07:03:00;;;;;;;4.80;0.70;;;;;;;;;;6045843;23;20023;-81
2023/03/25 07:05:30;;;;;;;2.10;0.60;;;;;;;;;;6092127;23;20026;-83
2023/03/25 07:07:57;;;;;;;3.40;0.90;;;;;;;;;;6068282;23;20082;-84
2023/03/25 07:10:24;;;;;;;2.53;0.68;;;;;;;;;;6068162;23;20046;-80
2023/03/25 07:12:51;;;;;;;3.35;0.90;;;;;;;;;;6067337;23;20023;-80
2023/03/25 07:15:18;;;;;;;2.35;0.65;;;;;;;;;;6067194;23;20031;-81
2023/03/25 07:17:48;;;;;;;2.38;0.93;;;;;;;;;;6043549;23;20105;-80
2023/03/25 07:20:15;;;;;;;4.45;0.93;;;;;;;;;;6068254;23;20398;-80
2023/03/25 07:22:42;;;;;;;3.58;0.73;;;;;;;;;;6067246;23;20098;-80
2023/03/25 07:25:09;;;;;;;5.22;1.00;;;;;;;;;;6066916;23;20022;-80
2023/03/25 07:27:36;;;;;;;2.80;0.68;;;;;;;;;;6042749;23;20019;-80
2023/03/25 07:30:04;;;;;;;4.35;0.77;;;;;;;;;;6066576;23;20334;-80
2023/03/25 07:32:30;;;;;;;3.40;0.73;;;;;;;;;;6066756;23;20473;-80
2023/03/25 07:34:57;;;;;;;2.75;0.70;;;;;;;;;;6066088;23;20019;-80
2023/03/25 07:37:24;;;;;;;2.63;0.80;;;;;;;;;;6066605;23;20019;-80
2023/03/25 07:39:50;;;;;;;2.55;0.60;;;;;;;;;;6066657;23;20027;-80
2023/03/25 07:42:17;;;;;;;2.42;0.60;;;;;;;;;;6066691;23;20029;-80
2023/03/25 07:44:44;;;;;;;2.60;0.55;;;;;;;;;;6067538;23;20019;-80
2023/03/25 07:47:11;;;;;;;2.35;0.50;;;;;;;;;;6090558;23;20022;-80
2023/03/25 07:49:39;;;;;;;3.97;0.98;;;;;;;;;;6067146;23;20023;-80
2023/03/25 07:52:06;;;;;;;1.85;0.63;;;;;;;;;;6045517;23;20031;-80
2023/03/25 07:54:33;;;;;;;2.05;0.77;;;;;;;;;;6066707;23;20023;-77
2023/03/25 07:56:59;;;;;;;3.72;0.70;;;;;;;;;;6065346;23;20065;-76
2023/03/25 07:59:26;;;;;;;0.90;0.50;;;;;;;;;;6067626;23;20026;-81
2023/03/25 08:01:55;;;;;;;0.75;0.45;;;;;;;;;;6068720;23;20026;-81
2023/03/25 08:04:21;;;;;;;1.30;0.60;;;;;;;;;;6069243;23;20022;-83
2023/03/25 08:06:48;;;;;;;1.38;0.50;;;;;;;;;;6045458;23;20027;-81
2023/03/25 08:09:15;;;;;;;1.15;0.47;;;;;;;;;;6069827;23;20100;-81
2023/03/25 08:11:42;;;;;;;4.53;0.65;;;;;;;;;;6091209;23;20033;-79
2023/03/25 08:14:08;;;;;;;2.88;0.75;;;;;;;;;;6070055;23;20019;-82
2023/03/25 08:16:35;;;;;;;3.85;0.57;;;;;;;;;;6046091;23;20031;-83
2023/03/25 08:19:04;;;;;;;2.33;0.50;;;;;;;;;;6069837;23;20034;-83
2023/03/25 08:21:31;;;;;;;0.90;0.30;;;;;;;;;;6067506;23;20027;-82
2023/03/25 08:24:01;;;;;;;2.38;0.60;;;;;;;;;;6068285;23;20059;-81
2023/03/25 08:26:28;;;;;;;7.25;0.75;;;;;;;;;;6066945;23;20027;-81
2023/03/25 08:28:56;;;;;;;3.05;1.25;;;;;;;;;;6067946;23;20031;-83
2023/03/25 08:31:24;;;;;;;2.20;0.55;;;;;;;;;;6044113;23;20535;-83
2023/03/25 08:33:51;;;;;;;1.48;0.40;;;;;;;;;;6066981;23;20692;-84
2023/03/25 08:36:18;;;;;;;0.75;0.47;;;;;;;;;;6067924;23;20353;-83
2023/03/25 08:38:46;;;;;;;1.73;0.43;;;;;;;;;;6066882;23;20454;-83
2023/03/25 08:41:13;;;;;;;1.52;0.40;;;;;;;;;;6064204;23;20058;-83
2023/03/25 08:43:40;;;;;;;1.80;0.50;;;;;;;;;;6064186;23;20365;-85
2023/03/25 08:46:10;;;;;;;1.42;0.30;;;;;;;;;;6064701;23;20065;-83
2023/03/25 08:48:37;;;;;;;1.42;0.50;;;;;;;;;;6065788;23;20035;-83
2023/03/25 08:51:05;;;;;;;2.05;0.47;;;;;;;;;;6066677;23;20405;-83
2023/03/25 08:53:31;;;;;;;2.88;0.50;;;;;;;;;;6089973;23;20022;-82
2023/03/25 08:55:58;;;;;;;0.32;0.22;;;;;;;;;;6066143;23;20070;-82
2023/03/25 08:58:25;;;;;;;0.85;0.20;;;;;;;;;;6090710;23;20035;-83
2023/03/25 09:00:54;;;;;;;0.68;0.20;;;;;;;;;;6068341;23;20460;-82
2023/03/25 09:03:22;;;;;;;0.98;0.22;;;;;;;;;;6069701;23;20034;-83
2023/03/25 09:05:49;;;;;;;0.40;0.25;;;;;;;;;;6070632;23;20018;-82
2023/03/25 09:08:16;;;;;;;0.55;0.22;;;;;;;;;;6071364;23;20133;-81
2023/03/25 09:10:43;;;;;;;0.13;0.10;;;;;;;;;;6075417;23;20022;-82
2023/03/25 09:13:10;;;;;;;1.75;0.40;;;;;;;;;;6049361;23;20033;-82
2023/03/25 09:15:37;;;;;;;0.10;0.10;;;;;;;;;;6075142;23;20022;-83
2023/03/25 09:18:04;;;;;;;1.35;0.32;;;;;;;;;;6070869;23;20047;-83
2023/03/25 09:20:32;;;;;;;0.13;0.13;;;;;;;;;;6072131;23;20027;-83
2023/03/25 09:22:59;;;;;;;0.40;0.28;;;;;;;;;;6070431;23;20023;-82
2023/03/25 09:25:25;;;;;;;0.85;0.40;;;;;;;;;;6070868;23;20079;-82
2023/03/25 09:27:52;;;;;;;0.28;0.20;;;;;;;;;;6070506;23;20027;-82
2023/03/25 09:30:19;;;;;;;1.30;0.30;;;;;;;;;;6070274;23;20033;-82
2023/03/25 09:32:49;;;;;;;1.60;0.38;;;;;;;;;;6070885;23;20033;-81
2023/03/25 09:35:17;;;;;;;0.40;0.40;;;;;;;;;;6071466;23;20096;-82
2023/03/25 09:37:44;;;;;;;0.70;0.30;;;;;;;;;;6070650;23;20029;-83
2023/03/25 09:40:17;;;;;;;;;;;;;;;;;;6071492;23;20030;-83
2023/03/25 09:42:59;;;;;;;0.40;0.20;;;;;;;;;;6070199;23;20324;-83
2023/03/25 09:45:41;;;;;;;0.60;0.30;;;;;;;;;;6070424;23;20341;-83
2023/03/25 09:48:20;;;;;;;0.20;0.20;;;;;;;;;;6068101;23;20031;-82
2023/03/25 09:50:47;;;;;;;0.68;0.30;;;;;;;;;;6091598;23;20027;-82
2023/03/25 09:53:46;;;;;;;0.60;0.30;;;;;;;;;;6066600;23;20031;-83
2023/03/25 09:56:17;;;;;;;1.77;0.60;;;;;;;;;;6092041;23;20037;-82
2023/03/25 09:58:44;;;;;;;2.25;0.63;;;;;;;;;;6067339;23;20023;-81
2023/03/25 10:01:19;;;;;;;1.00;0.57;;;;;;;;;;6091902;23;20334;-79
2023/03/25 10:04:00;;;;;;;1.13;0.30;;;;;;;;;;6066065;23;20023;-81
2023/03/25 10:06:27;;;;;;;0.70;0.60;;;;;;;;;;6064198;23;20073;-79
2023/03/25 10:09:06;;;;;;;1.88;0.65;;;;;;;;;;6065001;23;20335;-80
2023/03/25 10:11:51;;;;;;;2.33;0.98;;;;;;;;;;6064979;23;20074;-81
2023/03/25 10:14:28;;;;;;;1.15;0.40;;;;;;;;;;6089468;23;20065;-81
2023/03/25 10:17:05;;;;;;;1.55;0.75;;;;;;;;;;6065253;23;20027;-80
2023/03/25 10:19:35;;;;;;;0.85;0.70;;;;;;;;;;6064322;23;20102;-78
2023/03/25 10:22:27;;;;;;;1.27;0.40;;;;;;;;;;6058039;23;20029;-79
2023/03/25 10:24:59;;;;;;;1.35;0.32;;;;;;;;;;6060772;23;20023;-76
2023/03/25 10:27:31;;;;;;;0.97;0.40;;;;;;;;;;6064049;23;20031;-76
2023/03/25 10:30:12;;;;;;;2.03;0.50;;;;;;;;;;6064849;23;20254;-80
2023/03/25 10:32:41;;;;;;;1.27;0.40;;;;;;;;;;6062775;23;20353;-82
2023/03/25 10:35:15;;;;;;;1.33;0.40;;;;;;;;;;6063223;23;20412;-77
2023/03/25 10:37:43;;;;;;;2.75;0.47;;;;;;;;;;6062872;23;20066;-80
2023/03/25 10:40:34;;;;;;;1.08;0.45;;;;;;;;;;6064087;23;20075;-79
2023/03/25 10:43:33;;;;;;;2.17;1.48;;;;;;;;;;6061734;23;20027;-78
2023/03/25 10:46:32;;;;;;;2.28;0.88;;;;;;;;;;6032056;23;20029;-80
2023/03/25 10:49:07;;;;;;;1.77;0.32;;;;;;;;;;6059857;23;20102;-79
2023/03/25 10:51:38;;;;;;;1.10;0.30;;;;;;;;;;6062727;23;20721;-80
2023/03/25 10:54:11;;;;;;;2.15;0.40;;;;;;;;;;6063607;23;20052;-80
2023/03/25 10:56:51;;;;;;;0.50;0.35;;;;;;;;;;6061956;23;20840;-80
2023/03/25 10:59:34;;;;;;;1.33;0.35;;;;;;;;;;6060897;23;20030;-79
2023/03/25 11:02:27;;;;;;;2.38;0.60;;;;;;;;;;6083146;23;20086;-82
2023/03/25 11:05:00;;;;;;;0.43;0.40;;;;;;;;;;6062500;23;20358;-81
2023/03/25 11:07:36;;;;;;;1.35;0.32;;;;;;;;;;6064088;23;20031;-80
2023/03/25 11:10:10;;;;;;;1.63;0.22;;;;;;;;;;6062919;23;20062;-80
2023/03/25 11:12:47;;;;;;;2.10;0.20;;;;;;;;;;6063104;23;20023;-80
2023/03/25 11:15:16;;;;;;;0.32;0.20;;;;;;;;;;6063698;23;20019;-80
2023/03/25 11:17:48;;;;;;;1.15;0.40;;;;;;;;;;6064003;23;20054;-80
2023/03/25 11:20:25;;;;;;;2.25;0.20;;;;;;;;;;6063355;23;20042;-79
2023/03/25 11:22:53;;;;;;;1.20;0.40;;;;;;;;;;6062600;23;20027;-79
2023/03/25 11:25:30;;;;;;;1.13;0.30;;;;;;;;;;6062042;23;20061;-82
2023/03/25 11:27:59;;;;;;;1.05;0.35;;;;;;;;;;6063382;23;20026;-80
2023/03/25 11:30:27;;;;;;;1.40;0.35;;;;;;;;;;6063069;23;20029;-81
2023/03/25 11:33:07;;;;;;;0.88;0.32;;;;;;;;;;6063727;23;20058;-80
2023/03/25 11:35:51;;;;;;;;;;;;;;;;;;6059346;23;20023;-79
2023/03/25 11:38:33;;;;;;;0.93;0.40;;;;;;;;;;6071793;23;19996;-79
2023/03/25 11:41:00;;;;;;;2.95;0.50;;;;;;;;;;6070954;23;20574;-79
2023/03/25 11:43:35;;;;;;;1.23;0.28;;;;;;;;;;6086698;23;20022;-80
2023/03/25 11:46:23;;;;;;;1.77;0.40;;;;;;;;;;6063649;23;20106;-79
2023/03/25 11:48:54;;;;;;;1.90;0.50;;;;;;;;;;6063973;23;20031;-79
2023/03/25 11:51:26;;;;;;;3.70;0.63;;;;;;;;;;6063175;23;20082;-79
2023/03/25 11:54:13;;;;;;;2.22;0.50;;;;;;;;;;6064071;23;20027;-81
2023/03/25 11:56:50;;;;;;;1.85;0.50;;;;;;;;;;6063030;23;20033;-79
2023/03/25 11:59:22;;;;;;;2.22;0.47;;;;;;;;;;6064846;23;20025;-79
2023/03/25 12:02:19;;;;;;;1.33;0.20;;;;;;;;;;6073710;23;20133;-81
2023/03/25 12:05:01;;;;;;;1.20;0.45;;;;;;;;;;6094658;23;20019;-78
2023/03/25 12:07:44;;;;;;;1.08;0.40;;;;;;;;;;6064514;23;20062;-86
2023/03/25 12:10:23;;;;;;;1.88;0.60;;;;;;;;;;6070242;23;20023;-77
2023/03/25 12:13:28;;;;;;;2.00;0.40;;;;;;;;;;6068182;23;20030;-79
2023/03/25 12:16:09;;;;;;;0.82;0.30;;;;;;;;;;6091038;23;20030;-78
2023/03/25 12:18:55;;;;;;;0.73;0.40;;;;;;;;;;6063688;23;20026;-78
2023/03/25 12:21:25;;;;;;;1.25;0.40;;;;;;;;;;6114375;23;20003;-79
2023/03/25 12:24:06;;;;;;;2.40;0.52;;;;;;;;;;6093990;23;20006;-79
2023/03/25 12:27:11;;;;;;;2.00;0.65;;;;;;;;;;6115441;23;20011;-78
2023/03/25 12:29:49;;;;;;;1.45;0.65;;;;;;;;;;6115234;23;20278;-79
2023/03/25 12:32:39;;;;;;;1.25;0.43;;;;;;;;;;6116040;23;20019;-79
2023/03/25 12:35:37;;;;;;;0.40;0.30;;;;;;;;;;6088672;23;20021;-80
2023/03/25 12:38:25;;;;;;;0.80;0.30;;;;;;;;;;6115248;23;20310;-80
2023/03/25 12:41:06;;;;;;;1.10;0.30;;;;;;;;;;6091104;23;20033;-82
2023/03/25 12:44:06;;;;;;;1.55;0.50;;;;;;;;;;6095062;23;20039;-80
2023/03/25 12:46:58;;;;;;;0.57;0.30;;;;;;;;;;6118813;23;20011;-81
2023/03/25 12:50:07;;;;;;;1.98;0.50;;;;;;;;;;6118054;23;20007;-84
2023/03/25 12:52:47;;;;;;;1.48;0.50;;;;;;;;;;6116263;23;20011;-84
2023/03/25 12:55:58;;;;;;;1.60;0.57;;;;;;;;;;6115902;23;20082;-81
2023/03/25 12:58:45;;;;;;;1.52;0.70;;;;;;;;;;6027927;23;20027;-80
2023/03/25 13:01:39;;;;;;;0.88;0.30;;;;;;;;;;6100435;23;20027;-80
2023/03/25 13:04:13;;;;;;;1.40;0.40;;;;;;;;;;6091650;23;20046;-79
2023/03/25 13:07:03;;;;;;;0.82;0.30;;;;;;;;;;6094313;23;20026;-79
2023/03/25 13:09:44;;;;;;;1.60;0.40;;;;;;;;;;6084629;23;20190;-83
2023/03/25 13:12:36;;;;;;;1.92;0.30;;;;;;;;;;6064243;23;20029;-78
2023/03/25 13:15:08;;;;;;;1.17;0.28;;;;;;;;;;6051854;23;20023;-76
2023/03/25 13:17:46;;;;;;;0.13;0.10;;;;;;;;;;6069594;23;20030;-77
2023/03/25 13:20:14;;;;;;;0.47;0.20;;;;;;;;;;6087523;23;20026;-78
2023/03/25 13:22:45;;;;;;;0.82;0.38;;;;;;;;;;6064725;23;20031;-80
2023/03/25 13:25:45;;;;;;;0.77;0.35;;;;;;;;;;6063706;23;20101;-81
2023/03/25 13:28:37;;;;;;;2.10;0.30;;;;;;;;;;6064469;23;20037;-79
2023/03/25 13:31:10;;;;;;;0.70;0.28;;;;;;;;;;6064855;23;20049;-81
2023/03/25 13:33:50;;;;;;;2.65;0.55;;;;;;;;;;6064308;23;20527;-81
2023/03/25 13:36:37;;;;;;;1.95;0.40;;;;;;;;;;6065122;23;20023;-80
2023/03/25 13:39:15;;;;;;;0.90;0.30;;;;;;;;;;6066360;23;20081;-80
2023/03/25 13:41:45;;;;;;;1.38;0.40;;;;;;;;;;6063816;23;20026;-80
2023/03/25 13:44:30;;;;;;;0.68;0.40;;;;;;;;;;6067361;23;20054;-80
2023/03/25 13:47:07;;;;;;;0.90;0.30;;;;;;;;;;6062263;23;20023;-78
2023/03/25 13:50:07;;;;;;;1.48;0.47;;;;;;;;;;6063675;23;20343;-79
2023/03/25 13:52:40;;;;;;;0.95;0.60;;;;;;;;;;6040528;23;20027;-79
2023/03/25 13:55:23;;;;;;;2.20;0.65;;;;;;;;;;6063742;23;20026;-74
2023/03/25 13:58:12;;;;;;;2.58;0.40;;;;;;;;;;6064455;23;20031;-82
2023/03/25 14:01:09;;;;;;;1.15;0.47;;;;;;;;;;6090192;23;20027;-80
2023/03/25 14:03:45;;;;;;;3.92;0.68;;;;;;;;;;6088818;23;20030;-80
2023/03/25 14:06:28;;;;;;;1.45;0.30;;;;;;;;;;6088972;23;20018;-81
2023/03/25 14:09:17;;;;;;;0.60;0.40;;;;;;;;;;6065277;23;20033;-80
2023/03/25 14:11:48;;;;;;;0.70;0.50;;;;;;;;;;6089509;23;20089;-79
2023/03/25 14:14:21;;;;;;;1.35;0.30;;;;;;;;;;6089687;23;20164;-82
2023/03/25 14:16:57;;;;;;;1.40;0.50;;;;;;;;;;6066018;23;20078;-80
2023/03/25 14:19:30;;;;;;;1.50;0.55;;;;;;;;;;6065186;23;20038;-79
2023/03/25 14:21:58;;;;;;;3.28;0.57;;;;;;;;;;6064793;23;20055;-81
2023/03/25 14:24:28;;;;;;;2.05;0.47;;;;;;;;;;6066627;23;20027;-78
2023/03/25 14:27:21;;;;;;;1.52;0.43;;;;;;;;;;6067335;23;20533;-75
2023/03/25 14:29:57;;;;;;;3.13;0.68;;;;;;;;;;6062979;23;20106;-78
2023/03/25 14:32:34;;;;;;;1.95;0.50;;;;;;;;;;6090159;23;20050;-81
2023/03/25 14:35:30;;;;;;;2.42;0.40;;;;;;;;;;6067453;23;20026;-81
2023/03/25 14:38:11;;;;;;;1.67;0.52;;;;;;;;;;6090012;23;20030;-81
2023/03/25 14:40:42;;;;;;;1.52;0.40;;;;;;;;;;6089501;23;20030;-82
2023/03/25 14:43:35;;;;;;;2.83;0.32;;;;;;;;;;6085017;23;20035;-83
2023/03/25 14:46:07;;;;;;;1.58;0.50;;;;;;;;;;6064750;23;20070;-82
2023/03/25 14:48:36;;;;;;;2.33;0.70;;;;;;;;;;6065554;23;20039;-82
2023/03/25 14:51:27;;;;;;;1.02;0.47;;;;;;;;;;6064573;23;20022;-82
2023/03/25 14:54:19;;;;;;;3.67;0.50;;;;;;;;;;6062470;23;20027;-82
2023/03/25 14:57:08;;;;;;;1.35;0.47;;;;;;;;;;6061942;23;20025;-81
2023/03/25 14:59:42;;;;;;;1.85;0.47;;;;;;;;;;6089670;23;20043;-82
2023/03/25 15:02:20;;;;;;;2.40;1.08;;;;;;;;;;6065863;23;20054;-81
2023/03/25 15:05:15;;;;;;;2.13;0.60;;;;;;;;;;6065465;23;20844;-83
2023/03/25 15:08:08;;;;;;;3.83;1.55;;;;;;;;;;6034780;23;20025;-82
2023/03/25 15:10:41;;;;;;;1.77;0.70;;;;;;;;;;6062774;23;20022;-79
2023/03/25 15:13:23;;;;;;;2.65;0.90;;;;;;;;;;6066150;23;20019;-81
2023/03/25 15:15:58;;;;;;;3.58;0.98;;;;;;;;;;6045401;23;20118;-87
2023/03/25 15:18:35;;;;;;;2.10;0.70;;;;;;;;;;6066467;23;20102;-83
2023/03/25 15:21:09;;;;;;;4.22;0.52;;;;;;;;;;6089630;23;20030;-79
2023/03/25 15:23:47;;;;;;;3.83;0.90;;;;;;;;;;6067461;23;20019;-80